Time;durP1;ratioP1;P1;durP2;ratioP2;P2;SDS_P1;SDS_P2;PMS_P1;PMS_P2;Temp;Humidity;BMP_temperature;BMP_pressure;BME280_temperature;BME280_humidity;BME280_pressure;Samples;Min_cycle;Max_cycle;Signal;HPM_P1;HPM_P2
2024/02/07 02:15:03;;;;;;;10.00;8.00;;;;;;;24.42;21.13;100104.83;109609;1264;66019;-94
2024/02/07 06:17:11;;;;;;;28.60;9.60;;;;;;;23.51;22.58;100070.17;109333;1262;73499;-90
2024/02/07 06:19:41;;;;;;;23.50;9.40;;;;;;;23.51;22.54;100074.63;109405;1261;67619;-91
2024/02/07 06:31:09;;;;;;;29.20;9.80;;;;;;;23.52;22.70;100086.79;109439;1261;74040;-90
2024/02/07 06:48:57;;;;;;;36.30;10.50;;;;;;;23.59;23.35;100084.02;109521;1260;66533;-91
2024/02/07 07:16:13;;;;;;;53.00;14.20;;;;;;;23.60;23.29;100064.11;109533;1260;72781;-91
2024/02/07 07:48:22;;;;;;;24.80;12.00;;;;;;;24.09;24.54;100058.41;109327;1262;67643;-90
2024/02/07 07:54:03;;;;;;;29.60;11.60;;;;;;;24.14;24.45;100044.74;109417;1260;67749;-89
2024/02/07 08:04:59;;;;;;;20.70;9.70;;;;;;;24.15;24.42;100038.42;109228;1264;68055;-90
2024/02/07 08:07:25;;;;;;;25.10;9.70;;;;;;;24.17;24.21;100044.80;109117;1264;67264;-91
2024/02/07 08:12:54;;;;;;;20.60;9.50;;;;;;;24.19;24.13;100054.83;109505;1260;71763;-88
2024/02/07 08:15:20;;;;;;;23.10;9.00;;;;;;;24.22;24.23;100058.63;109356;1261;67670;-87
2024/02/07 08:18:06;;;;;;;26.20;10.00;;;;;;;24.24;24.26;100053.19;109421;1261;67976;-89
2024/02/07 08:20:46;;;;;;;23.30;9.80;;;;;;;24.24;24.40;100044.41;109507;1260;67664;-90
2024/02/07 08:23:14;;;;;;;32.20;10.00;;;;;;;24.22;24.27;100044.19;109374;1261;67990;-89
2024/02/07 08:34:10;;;;;;;20.10;9.10;;;;;;;24.16;24.51;100045.70;109320;1263;67886;-90
2024/02/07 08:39:21;;;;;;;17.10;8.80;;;;;;;24.13;24.60;100045.93;109335;1262;74315;-88
2024/02/07 08:41:50;;;;;;;22.50;8.70;;;;;;;24.14;24.61;100046.50;109199;1260;67618;-90
2024/02/07 08:47:15;;;;;;;18.30;9.50;;;;;;;24.11;24.49;100053.58;109381;1263;67618;-88
2024/02/07 08:49:41;;;;;;;17.50;8.50;;;;;;;24.10;24.58;100057.04;109123;1263;67419;-87
2024/02/07 08:54:53;;;;;;;21.10;8.30;;;;;;;24.08;24.48;100050.98;109343;1262;68136;-86
2024/02/07 08:57:27;;;;;;;17.10;8.40;;;;;;;24.09;24.41;100054.16;109401;1262;67238;-89
2024/02/07 09:00:23;;;;;;;23.80;8.60;;;;;;;24.10;24.47;100052.17;109385;1260;67312;-91
2024/02/07 09:05:43;;;;;;;20.30;7.90;;;;;;;24.15;24.68;100043.50;109172;1262;74314;-89
2024/02/07 09:13:53;;;;;;;28.40;8.60;;;;;;;24.22;24.85;100041.66;109366;1261;67522;-90
2024/02/07 09:21:47;;;;;;;24.60;7.80;;;;;;;24.25;24.95;100029.77;109571;1260;67715;-88
2024/02/07 09:24:13;;;;;;;22.10;7.80;;;;;;;24.28;24.98;100025.35;109741;1260;66891;-88
2024/02/07 09:26:38;;;;;;;26.90;7.40;;;;;;;24.30;25.12;100024.89;109717;1260;67002;-87
2024/02/07 09:29:04;;;;;;;28.80;8.10;;;;;;;24.32;25.00;100020.06;109650;1261;67029;-89
2024/02/07 09:31:30;;;;;;;20.30;8.40;;;;;;;24.33;25.22;100014.33;109524;1260;67658;-89
2024/02/07 09:33:56;;;;;;;18.60;8.20;;;;;;;24.35;25.10;100014.95;109448;1260;66980;-91
2024/02/07 09:36:22;;;;;;;19.90;8.00;;;;;;;24.37;25.15;100014.71;109431;1260;67535;-90
2024/02/07 09:38:51;;;;;;;24.30;8.10;;;;;;;24.38;25.13;100014.13;109479;1260;74218;-90
2024/02/07 09:41:22;;;;;;;22.20;8.50;;;;;;;24.40;25.05;100012.14;109398;1260;74366;-89
2024/02/07 09:43:48;;;;;;;29.00;8.90;;;;;;;24.42;25.12;100009.08;109270;1261;67560;-87
2024/02/07 09:55:29;;;;;;;22.40;7.40;;;;;;;24.46;25.13;99997.29;109498;1257;71472;31
2024/02/07 09:57:55;;;;;;;25.60;8.40;;;;;;;24.49;25.16;99990.60;109349;1260;67956;-88
2024/02/07 10:03:25;;;;;;;30.10;7.80;;;;;;;24.50;25.17;99984.24;109511;1263;66988;-89
2024/02/07 10:05:59;;;;;;;32.10;7.80;;;;;;;24.51;25.12;99982.79;109487;1260;67097;-89
2024/02/07 10:31:29;;;;;;;42.50;10.40;;;;;;;24.56;24.76;99937.69;109360;1262;67474;-88
2024/02/07 10:33:57;;;;;;;33.00;9.00;;;;;;;24.50;24.57;99933.74;109409;1264;67113;-89
2024/02/07 10:36:38;;;;;;;49.30;9.50;;;;;;;24.43;24.62;99931.44;109236;1262;74087;-89
2024/02/07 10:41:58;;;;;;;42.50;9.10;;;;;;;24.39;24.88;99933.70;109533;1261;67705;-90
2024/02/07 10:47:08;;;;;;;29.20;8.10;;;;;;;24.40;24.82;99926.11;109318;1263;67422;-91
2024/02/07 12:04:53;;;;;;;17.90;7.30;;;;;;;24.75;24.43;99817.02;109416;1262;67362;-93
2024/02/07 12:13:44;;;;;;;16.40;6.00;;;;;;;24.75;24.16;99797.98;109443;1263;67472;-87
2024/02/07 12:22:03;;;;;;;19.80;6.00;;;;;;;24.77;23.79;99784.10;109366;1264;73848;-89
2024/02/07 13:47:25;;;;;;;24.60;5.50;;;;;;;25.02;23.26;99722.14;109385;1262;66861;-89
2024/02/07 14:18:38;;;;;;;12.70;4.20;;;;;;;25.05;22.93;99703.46;109408;1263;73255;-91
2024/02/07 14:32:19;;;;;;;16.80;4.50;;;;;;;25.02;22.91;99690.59;109347;1262;74595;-90
2024/02/07 15:12:02;;;;;;;17.50;4.90;;;;;;;25.04;23.26;99679.90;109376;1263;66622;-88
2024/02/07 15:14:30;;;;;;;14.50;5.40;;;;;;;25.04;23.17;99680.28;109317;1263;75262;-91
2024/02/07 15:16:56;;;;;;;14.90;5.00;;;;;;;25.04;23.11;99679.90;109263;1262;67341;-87
2024/02/07 15:25:05;;;;;;;14.30;5.20;;;;;;;25.03;23.17;99689.98;108955;1262;553874;-88
2024/02/07 15:27:31;;;;;;;16.70;5.20;;;;;;;25.03;23.32;99695.05;109314;1263;67856;-89
2024/02/07 15:30:03;;;;;;;16.10;5.70;;;;;;;25.03;23.19;99695.38;109290;1263;67809;-89
2024/02/07 15:32:30;;;;;;;15.90;5.00;;;;;;;25.02;23.29;99700.23;109253;1263;67671;-90
2024/02/07 15:37:48;;;;;;;15.30;5.40;;;;;;;25.02;23.22;99701.64;109430;1262;67508;-87
2024/02/07 15:40:14;;;;;;;15.20;5.20;;;;;;;25.02;23.26;99703.38;109245;1262;67698;-87
2024/02/07 15:42:39;;;;;;;13.40;5.20;;;;;;;25.03;23.02;99706.86;109378;1263;67277;-88
2024/02/07 15:45:05;;;;;;;9.80;5.10;;;;;;;25.04;23.22;99707.20;109453;1262;67131;-87
2024/02/07 15:50:24;;;;;;;10.20;4.80;;;;;;;25.04;23.08;99709.74;109351;1262;71279;-89
2024/02/07 15:52:52;;;;;;;10.20;5.30;;;;;;;25.06;23.07;99707.19;109253;1262;67004;-88
2024/02/07 15:55:21;;;;;;;16.60;5.70;;;;;;;25.06;23.04;99706.82;109235;1263;67588;-88
2024/02/07 15:57:47;;;;;;;11.10;5.50;;;;;;;25.06;23.05;99706.29;108977;1262;67506;-85
2024/02/07 16:00:13;;;;;;;17.20;5.60;;;;;;;25.07;23.06;99703.55;109271;1262;67536;-86
2024/02/07 16:02:39;;;;;;;12.80;5.00;;;;;;;25.08;23.14;99702.04;109221;1263;67713;-87
2024/02/07 16:05:04;;;;;;;15.00;5.30;;;;;;;25.08;22.98;99702.20;109286;1263;67708;-87
2024/02/07 16:07:30;;;;;;;11.40;5.30;;;;;;;25.09;22.95;99706.34;109262;1262;67632;-86
2024/02/07 16:09:56;;;;;;;17.80;5.80;;;;;;;25.10;23.05;99701.10;109290;1262;67572;-86
2024/02/07 16:12:21;;;;;;;14.70;5.60;;;;;;;25.11;23.17;99700.05;109379;1263;67540;-87
2024/02/07 16:17:27;;;;;;;12.00;5.30;;;;;;;25.10;22.88;99704.95;109189;1264;67744;-86
2024/02/07 16:19:52;;;;;;;10.00;5.50;;;;;;;25.11;22.98;99707.10;109028;1263;66932;-86
2024/02/07 16:22:18;;;;;;;8.50;5.40;;;;;;;25.11;22.97;99705.03;109239;1263;67693;-86
2024/02/07 16:24:44;;;;;;;15.50;5.40;;;;;;;25.11;22.86;99702.89;109174;1264;67161;-86
2024/02/07 16:27:09;;;;;;;10.30;5.40;;;;;;;25.11;22.94;99704.58;109205;1264;67635;-86
2024/02/07 16:29:35;;;;;;;10.50;5.60;;;;;;;25.12;22.84;99709.77;109155;1264;66941;-86
2024/02/07 16:32:00;;;;;;;9.80;5.10;;;;;;;25.12;22.90;99708.31;109289;1263;67344;-86
2024/02/07 16:34:26;;;;;;;7.70;5.60;;;;;;;25.12;22.81;99711.20;109290;1263;67575;-86
2024/02/07 16:36:51;;;;;;;9.10;5.70;;;;;;;25.12;22.88;99711.76;109244;1264;67530;-86
2024/02/07 16:39:17;;;;;;;8.50;5.60;;;;;;;25.12;22.83;99716.17;109334;1263;67509;-86
2024/02/07 16:41:51;;;;;;;8.50;5.30;;;;;;;25.12;22.92;99714.02;109300;1264;67630;-91
2024/02/07 16:44:17;;;;;;;8.90;5.20;;;;;;;25.12;22.79;99719.01;109305;1264;75213;-86
2024/02/07 16:46:42;;;;;;;8.60;5.70;;;;;;;25.13;22.79;99721.48;109296;1264;66904;-86
2024/02/07 16:49:08;;;;;;;9.80;5.80;;;;;;;25.14;22.75;99720.41;109188;1264;67686;-86
2024/02/07 16:51:34;;;;;;;11.20;5.60;;;;;;;25.14;22.77;99723.27;109284;1264;67627;-85
2024/02/07 16:53:59;;;;;;;10.50;5.90;;;;;;;25.15;22.84;99729.45;109340;1264;67590;-86
2024/02/07 16:56:25;;;;;;;12.40;5.60;;;;;;;25.15;22.86;99725.48;109160;1264;67651;-85
2024/02/07 16:58:51;;;;;;;13.40;6.00;;;;;;;25.14;22.80;99731.33;109261;1263;66865;-85
2024/02/07 17:01:24;;;;;;;12.80;6.40;;;;;;;25.13;22.75;99731.44;109232;1264;67675;-85
2024/02/07 17:03:49;;;;;;;16.50;7.20;;;;;;;25.13;22.78;99733.09;109250;1264;67456;-85
2024/02/07 17:06:19;;;;;;;17.00;7.10;;;;;;;25.12;22.77;99735.58;109234;1263;67241;-85
2024/02/07 17:08:45;;;;;;;16.10;6.70;;;;;;;25.12;22.67;99734.98;109183;1264;67491;-91
2024/02/07 17:11:10;;;;;;;12.80;6.70;;;;;;;25.12;22.66;99733.95;109124;1264;67479;-85
2024/02/07 17:13:36;;;;;;;11.70;6.60;;;;;;;25.11;22.67;99734.59;109159;1265;67531;-85
2024/02/07 17:16:01;;;;;;;15.20;6.90;;;;;;;25.11;22.73;99739.95;109190;1264;67583;-86
2024/02/07 17:18:27;;;;;;;18.70;6.80;;;;;;;25.11;22.69;99737.23;109308;1264;67621;-86
2024/02/07 17:20:53;;;;;;;13.50;6.30;;;;;;;25.10;22.78;99736.17;109221;1264;67630;-86
2024/02/07 17:23:18;;;;;;;17.70;6.20;;;;;;;25.10;22.69;99738.16;109248;1264;67574;-86
2024/02/07 17:25:44;;;;;;;16.70;6.00;;;;;;;25.11;22.60;99739.07;109281;1264;67444;-86
2024/02/07 17:28:10;;;;;;;12.70;6.60;;;;;;;25.10;22.60;99745.42;109194;1264;67894;-86
2024/02/07 17:30:38;;;;;;;12.20;6.00;;;;;;;25.11;22.79;99748.17;109217;1264;67061;-86
2024/02/07 17:33:04;;;;;;;9.80;5.80;;;;;;;25.11;22.57;99748.79;109276;1264;67537;-86
2024/02/07 17:35:46;;;;;;;13.70;6.20;;;;;;;25.11;22.56;99743.45;109256;1264;66846;-90
2024/02/07 17:38:11;;;;;;;16.50;6.70;;;;;;;25.11;22.65;99745.88;109276;1264;67640;-85
2024/02/07 17:40:37;;;;;;;17.80;6.40;;;;;;;25.10;22.63;99745.08;109355;1264;67753;-85
2024/02/07 17:43:03;;;;;;;14.40;6.70;;;;;;;25.09;22.60;99738.66;109292;1264;67130;-86
2024/02/07 17:45:28;;;;;;;11.20;6.40;;;;;;;25.08;22.65;99735.40;109248;1264;67541;-85
2024/02/07 17:47:54;;;;;;;14.10;6.50;;;;;;;25.08;22.73;99734.05;109313;1264;66846;-85
2024/02/07 17:50:35;;;;;;;;;;;;;;;;;;;;;
2024/02/07 17:53:09;;;;;;;8.50;5.90;;;;;;;25.08;22.57;99728.23;109157;1263;67754;-84
2024/02/07 17:55:34;;;;;;;10.00;6.00;;;;;;;25.09;22.51;99736.29;109269;1264;67570;-85
2024/02/07 17:58:00;;;;;;;12.10;6.30;;;;;;;25.10;22.70;99734.96;109323;1263;67762;-85
2024/02/07 18:00:26;;;;;;;16.90;5.70;;;;;;;25.11;22.57;99729.04;109276;1264;67516;-84
2024/02/07 18:02:52;;;;;;;9.70;5.80;;;;;;;25.11;22.74;99732.42;109276;1264;67571;-88
2024/02/07 18:05:22;;;;;;;9.80;5.80;;;;;;;25.11;22.54;99733.87;109304;1264;67630;-85
2024/02/07 18:08:02;;;;;;;12.50;5.80;;;;;;;25.10;22.57;99731.68;109089;1264;67354;-85
2024/02/07 18:10:31;;;;;;;10.00;5.50;;;;;;;25.11;22.68;99728.21;109179;1264;66849;-87
2024/02/07 18:13:00;;;;;;;10.80;5.50;;;;;;;25.11;22.54;99728.93;109170;1264;74217;-87
2024/02/07 18:15:26;;;;;;;13.30;5.50;;;;;;;25.12;22.43;99731.52;109075;1264;67640;-87
2024/02/07 18:17:51;;;;;;;13.00;5.30;;;;;;;25.13;22.73;99731.04;109044;1264;67679;-86
2024/02/07 18:22:59;;;;;;;10.80;5.30;;;;;;;25.13;22.65;99734.90;109355;1264;67404;-85
2024/02/07 18:25:25;;;;;;;12.50;5.30;;;;;;;25.13;22.60;99735.81;109361;1262;74350;-87
2024/02/07 18:27:54;;;;;;;12.10;5.60;;;;;;;25.14;22.67;99734.98;109353;1263;67490;-85
2024/02/07 18:30:19;;;;;;;9.20;5.20;;;;;;;25.14;22.42;99738.30;109382;1263;67567;-87
2024/02/07 18:32:45;;;;;;;15.10;5.80;;;;;;;25.15;22.69;99737.97;109157;1263;67538;-87
2024/02/07 18:35:10;;;;;;;13.20;5.40;;;;;;;25.15;22.68;99741.63;109351;1264;67491;-86
2024/02/07 18:37:36;;;;;;;8.80;5.30;;;;;;;25.16;22.87;99742.99;109362;1262;67496;-85
2024/02/07 18:40:01;;;;;;;13.40;5.50;;;;;;;25.16;22.60;99737.64;109205;1263;67536;-85
2024/02/07 18:42:27;;;;;;;13.10;5.10;;;;;;;25.17;22.65;99741.64;109236;1263;67656;-85
2024/02/07 18:44:52;;;;;;;11.00;5.30;;;;;;;25.17;22.70;99737.71;109399;1262;66771;-85
2024/02/07 18:47:24;;;;;;;18.70;5.80;;;;;;;25.17;22.73;99737.70;109403;1262;67798;-91
2024/02/07 18:49:50;;;;;;;13.40;5.60;;;;;;;25.17;22.78;99737.14;109372;1262;67465;-85
2024/02/07 18:52:15;;;;;;;11.80;5.80;;;;;;;25.17;22.79;99733.59;109408;1262;66873;-85
2024/02/07 18:54:41;;;;;;;9.10;5.10;;;;;;;25.17;22.78;99736.61;109643;1263;66864;-85
2024/02/07 18:57:06;;;;;;;9.40;5.20;;;;;;;25.17;22.69;99734.65;109617;1264;66851;-84
2024/02/07 18:59:32;;;;;;;9.40;5.40;;;;;;;25.18;22.72;99732.95;109666;1263;66884;-84
2024/02/07 19:01:57;;;;;;;11.60;5.00;;;;;;;25.18;22.91;99730.47;109605;1262;66948;-84
2024/02/07 19:04:24;;;;;;;11.90;5.50;;;;;;;25.18;22.94;99732.05;109613;1263;66929;-84
2024/02/07 19:06:49;;;;;;;14.10;5.20;;;;;;;25.18;22.82;99735.10;109493;1263;67599;-87
2024/02/07 19:09:15;;;;;;;10.50;5.30;;;;;;;25.17;22.74;99740.88;109193;1263;67521;-87
2024/02/07 19:11:40;;;;;;;13.40;5.30;;;;;;;25.18;22.85;99746.01;109320;1262;67330;-87
2024/02/07 19:14:23;;;;;;;13.30;5.30;;;;;;;25.18;22.84;99743.34;109375;1263;67534;-89
2024/02/07 19:16:49;;;;;;;11.80;5.60;;;;;;;25.18;22.71;99741.91;109480;1263;67472;-86
2024/02/07 19:19:15;;;;;;;10.70;5.00;;;;;;;25.18;22.87;99738.09;109463;1263;66904;-84
2024/02/07 19:21:40;;;;;;;9.10;5.10;;;;;;;25.18;22.76;99739.98;109440;1263;66956;-84
2024/02/07 19:24:06;;;;;;;12.80;5.30;;;;;;;25.19;22.81;99737.06;109506;1262;66896;-84
2024/02/07 19:26:32;;;;;;;12.80;5.60;;;;;;;25.19;22.80;99731.26;109624;1262;66881;-84
2024/02/07 19:28:57;;;;;;;13.00;5.30;;;;;;;25.19;22.93;99726.77;109489;1263;74120;-85
2024/02/07 19:31:23;;;;;;;7.50;5.00;;;;;;;25.19;22.71;99724.80;109346;1262;67538;-85
2024/02/07 19:33:48;;;;;;;11.30;5.30;;;;;;;25.20;22.80;99723.83;109382;1263;67609;-85
2024/02/07 19:36:14;;;;;;;10.10;5.10;;;;;;;25.20;22.67;99723.61;109500;1262;67534;-83
2024/02/07 19:38:39;;;;;;;12.10;5.00;;;;;;;25.20;22.72;99728.59;109616;1263;66889;-85
2024/02/07 19:41:05;;;;;;;12.30;5.40;;;;;;;25.20;22.80;99725.58;109424;1262;67516;-85
2024/02/07 19:43:31;;;;;;;9.80;5.20;;;;;;;25.20;22.89;99717.38;109260;1263;67562;-85
2024/02/07 19:45:56;;;;;;;7.80;5.00;;;;;;;25.21;22.82;99714.84;109229;1262;67544;-85
2024/02/07 19:48:22;;;;;;;8.40;5.00;;;;;;;25.21;22.85;99712.20;109385;1263;66871;-85
2024/02/07 19:50:47;;;;;;;9.30;4.70;;;;;;;25.21;22.77;99716.63;109441;1263;67622;-85
2024/02/07 19:53:13;;;;;;;14.10;5.40;;;;;;;25.22;22.92;99714.97;109411;1262;67509;-85
2024/02/07 19:55:38;;;;;;;11.10;4.70;;;;;;;25.23;22.91;99714.90;109354;1263;67548;-85
2024/02/07 19:58:04;;;;;;;9.50;5.10;;;;;;;25.23;22.97;99719.30;109344;1263;67639;-85
2024/02/07 20:00:29;;;;;;;11.80;5.00;;;;;;;25.23;22.85;99719.36;109189;1263;67839;-85
2024/02/07 20:02:55;;;;;;;11.30;5.40;;;;;;;25.24;22.87;99729.17;109371;1263;67520;-85
2024/02/07 20:05:22;;;;;;;12.60;5.30;;;;;;;25.24;22.75;99723.55;109343;1263;67524;-85
2024/02/07 20:07:47;;;;;;;10.10;5.30;;;;;;;25.24;22.79;99717.02;109351;1263;67485;-85
2024/02/07 20:10:13;;;;;;;13.30;4.60;;;;;;;25.25;22.97;99715.25;109226;1263;67576;-85
2024/02/07 20:12:38;;;;;;;8.40;5.20;;;;;;;25.25;22.94;99725.48;109334;1262;67618;-85
2024/02/07 20:15:04;;;;;;;9.80;5.00;;;;;;;25.26;22.90;99723.51;109367;1263;67607;-85
2024/02/07 20:17:30;;;;;;;10.10;5.20;;;;;;;25.25;22.84;99725.38;109394;1262;66976;-85
2024/02/07 20:20:00;;;;;;;10.50;4.80;;;;;;;25.25;22.78;99728.92;109218;1262;67179;-90
2024/02/07 20:22:25;;;;;;;11.50;5.00;;;;;;;25.25;22.63;99723.83;109317;1263;67622;-85
2024/02/07 20:24:51;;;;;;;10.50;5.00;;;;;;;25.26;22.88;99718.08;109352;1263;67637;-87
2024/02/07 20:27:16;;;;;;;8.90;4.90;;;;;;;25.26;22.79;99720.16;109379;1263;67635;-87
2024/02/07 20:29:43;;;;;;;14.10;5.00;;;;;;;25.26;23.06;99712.23;109360;1262;67499;-87
2024/02/07 20:32:08;;;;;;;13.90;5.10;;;;;;;25.26;22.76;99712.69;109372;1262;67985;-88
2024/02/07 20:34:37;;;;;;;10.30;5.30;;;;;;;25.26;22.86;99712.00;109338;1263;67571;-87
2024/02/07 20:37:03;;;;;;;8.00;5.20;;;;;;;25.27;22.82;99711.89;109183;1263;67843;-87
2024/02/07 20:39:28;;;;;;;9.00;5.50;;;;;;;25.27;23.09;99715.45;109383;1263;67632;-87
2024/02/07 20:41:55;;;;;;;8.40;5.10;;;;;;;25.27;22.87;99714.20;109221;1263;67527;-87
2024/02/07 20:44:24;;;;;;;8.90;5.30;;;;;;;25.27;22.79;99713.64;109333;1262;67618;-87
2024/02/07 20:46:58;;;;;;;9.40;5.40;;;;;;;25.27;22.85;99712.11;109359;1263;67602;-92
2024/02/07 20:49:24;;;;;;;15.40;5.50;;;;;;;25.27;22.90;99714.16;109153;1262;67626;-87
2024/02/07 20:51:50;;;;;;;10.00;5.10;;;;;;;25.28;22.97;99722.16;109360;1263;67521;-87
2024/02/07 20:54:16;;;;;;;8.80;4.60;;;;;;;25.27;23.01;99725.52;109401;1263;67443;-85
2024/02/07 20:56:42;;;;;;;10.40;5.50;;;;;;;25.27;22.88;99727.48;109360;1263;67400;-85
2024/02/07 20:59:08;;;;;;;9.00;4.90;;;;;;;25.27;22.88;99725.67;109386;1262;67607;-85
2024/02/07 21:01:33;;;;;;;7.90;4.80;;;;;;;25.27;23.05;99722.09;109236;1262;67758;-85
2024/02/07 21:03:59;;;;;;;12.20;5.10;;;;;;;25.27;22.89;99725.48;109434;1262;67634;-85
2024/02/07 21:06:28;;;;;;;9.00;4.90;;;;;;;25.27;23.06;99733.14;109341;1263;67471;-85
2024/02/07 21:08:55;;;;;;;8.80;5.20;;;;;;;25.26;22.87;99734.35;109377;1262;67557;-85
2024/02/07 21:11:22;;;;;;;8.50;4.90;;;;;;;25.25;22.79;99729.90;109382;1262;67341;-87
2024/02/07 21:13:56;;;;;;;9.90;5.00;;;;;;;25.25;22.84;99727.17;109390;1262;67657;-92
2024/02/07 21:16:21;;;;;;;10.50;5.00;;;;;;;25.24;22.83;99734.61;109347;1263;74306;-87
2024/02/07 21:18:47;;;;;;;8.10;5.10;;;;;;;25.24;22.97;99740.12;109338;1263;67622;-87
2024/02/07 21:21:15;;;;;;;8.00;4.90;;;;;;;25.24;22.76;99739.55;109333;1262;67524;-87
2024/02/07 21:23:41;;;;;;;8.60;5.20;;;;;;;25.24;22.98;99741.48;109366;1263;67518;-87
2024/02/07 21:26:07;;;;;;;8.10;5.10;;;;;;;25.23;22.96;99746.23;109401;1263;67597;-87
2024/02/07 21:28:32;;;;;;;8.50;5.30;;;;;;;25.22;22.77;99747.02;109164;1263;67783;-87
2024/02/07 21:30:59;;;;;;;9.30;4.60;;;;;;;25.22;22.98;99751.77;109367;1262;67579;-87
2024/02/07 21:33:26;;;;;;;9.00;5.10;;;;;;;25.22;22.90;99748.49;109359;1263;67518;-85
2024/02/07 21:35:51;;;;;;;8.00;4.80;;;;;;;25.21;22.85;99753.52;109387;1262;67535;-85
2024/02/07 21:38:17;;;;;;;8.90;5.10;;;;;;;25.20;22.99;99754.30;109224;1264;67556;-85
2024/02/07 21:40:52;;;;;;;10.40;5.20;;;;;;;25.20;22.95;99753.27;109363;1262;67156;-90
2024/02/07 21:43:18;;;;;;;7.50;4.80;;;;;;;25.18;22.87;99752.32;109340;1263;67628;-86
2024/02/07 21:45:44;;;;;;;8.00;5.00;;;;;;;25.18;22.97;99750.73;109401;1263;67425;-87
2024/02/07 21:48:10;;;;;;;10.00;5.00;;;;;;;25.17;22.90;99750.52;109371;1263;67623;-85
2024/02/07 21:50:36;;;;;;;7.90;5.20;;;;;;;25.17;23.06;99748.66;109392;1263;67183;-85
2024/02/07 21:53:01;;;;;;;11.70;5.50;;;;;;;25.17;22.97;99749.90;109351;1262;67577;-85
2024/02/07 21:55:27;;;;;;;11.10;4.90;;;;;;;25.17;23.06;99745.90;109447;1262;67458;-85
2024/02/07 21:57:53;;;;;;;10.50;4.80;;;;;;;25.16;23.01;99742.98;109245;1263;67645;-85
2024/02/07 22:00:19;;;;;;;9.10;4.90;;;;;;;25.15;23.06;99748.88;109389;1263;67171;-85
2024/02/07 22:02:44;;;;;;;8.00;5.00;;;;;;;25.15;23.09;99752.58;109347;1263;67505;-85
2024/02/07 22:05:13;;;;;;;9.40;5.00;;;;;;;25.14;23.11;99758.69;109089;1263;67618;-85
2024/02/07 22:07:41;;;;;;;10.20;5.50;;;;;;;25.14;22.94;99759.83;109403;1262;67664;-90
2024/02/07 22:10:07;;;;;;;7.60;4.90;;;;;;;25.14;23.07;99757.82;109363;1263;67456;-85
2024/02/07 22:12:32;;;;;;;6.00;4.70;;;;;;;25.14;22.95;99759.63;109392;1262;67425;-85
2024/02/07 22:14:58;;;;;;;7.60;4.70;;;;;;;25.13;23.07;99762.42;109358;1263;67524;-85
2024/02/07 22:17:25;;;;;;;8.20;5.00;;;;;;;25.13;23.08;99757.70;109379;1263;67968;-85
2024/02/07 22:19:52;;;;;;;7.00;4.50;;;;;;;25.13;22.94;99762.38;109382;1264;67614;-85
2024/02/07 22:22:18;;;;;;;7.70;5.10;;;;;;;25.13;23.02;99763.36;109220;1263;67544;-85
2024/02/07 22:24:44;;;;;;;7.70;4.70;;;;;;;25.12;23.06;99770.80;109396;1262;67568;-85
2024/02/07 22:29:56;;;;;;;6.70;4.60;;;;;;;25.11;22.96;99770.11;109431;1264;67601;-89
2024/02/07 22:32:21;;;;;;;6.60;4.90;;;;;;;25.11;22.99;99769.02;109444;1263;67638;-89
2024/02/07 22:34:49;;;;;;;6.90;4.90;;;;;;;25.11;22.98;99772.11;109460;1263;67564;-90
2024/02/07 22:37:18;;;;;;;9.20;4.90;;;;;;;25.11;23.18;99770.72;109356;1263;74233;-89
2024/02/07 22:39:43;;;;;;;9.30;4.60;;;;;;;25.11;22.96;99771.96;109447;1262;66830;-89
2024/02/07 22:42:10;;;;;;;9.80;5.00;;;;;;;25.11;23.00;99766.98;109349;1262;66914;-89
2024/02/07 22:44:41;;;;;;;7.20;4.90;;;;;;;25.11;23.02;99765.54;109347;1263;67698;-89
2024/02/07 22:47:07;;;;;;;;;;;;;;;25.10;22.96;99767.80;109343;1268;66921;-91
2024/02/07 22:49:33;;;;;;;6.50;4.40;;;;;;;25.07;23.03;99769.33;109515;1263;66862;-91
2024/02/07 22:51:59;;;;;;;9.20;5.10;;;;;;;25.07;23.13;99780.55;109485;1262;66830;-89
2024/02/07 22:54:27;;;;;;;6.70;4.80;;;;;;;25.08;23.04;99786.85;109285;1263;433095;-90
2024/02/07 22:57:18;;;;;;;7.00;5.20;;;;;;;25.07;23.19;99784.73;109475;1262;67456;-90
2024/02/07 22:59:46;;;;;;;9.20;4.70;;;;;;;25.07;23.13;99785.89;109430;1262;67459;-89
2024/02/07 23:07:44;;;;;;;7.30;4.80;;;;;;;25.07;22.99;99787.71;109366;1264;67567;-90
2024/02/07 23:10:10;;;;;;;7.50;5.00;;;;;;;25.08;23.08;99783.66;109387;1264;67250;-89
2024/02/07 23:12:35;;;;;;;7.80;4.90;;;;;;;25.07;22.93;99780.36;109449;1267;66852;-89
2024/02/07 23:15:04;;;;;;;8.80;4.40;;;;;;;25.08;22.97;99780.54;109489;1264;66905;-90
2024/02/07 23:17:35;;;;;;;7.40;4.60;;;;;;;25.07;22.99;99778.39;109455;1263;67026;-89
2024/02/07 23:20:02;;;;;;;6.90;5.00;;;;;;;25.07;23.00;99780.80;109628;1262;66858;-90
2024/02/07 23:22:28;;;;;;;8.80;4.70;;;;;;;25.08;23.28;99784.92;109320;1263;67668;-89
2024/02/07 23:24:56;;;;;;;10.60;5.20;;;;;;;25.07;23.16;99782.80;109494;1262;67219;-90
2024/02/07 23:27:22;;;;;;;7.30;4.60;;;;;;;25.07;23.11;99781.92;109422;1262;74211;-89
2024/02/07 23:29:51;;;;;;;7.90;4.90;;;;;;;25.07;23.07;99783.95;109163;1263;67553;-90
2024/02/07 23:32:17;;;;;;;8.60;5.00;;;;;;;25.07;23.04;99788.17;109529;1263;66936;-90
2024/02/07 23:37:28;;;;;;;6.90;4.60;;;;;;;25.08;23.01;99796.85;109533;1264;66932;-91
2024/02/07 23:42:42;;;;;;;7.90;5.20;;;;;;;25.07;23.16;99799.33;109367;1263;67472;-88
2024/02/07 23:45:08;;;;;;;8.70;4.70;;;;;;;25.08;23.03;99799.37;109279;1265;67476;-88
2024/02/07 23:47:38;;;;;;;7.70;4.90;;;;;;;25.09;23.09;99798.48;109396;1264;67622;-88
2024/02/07 23:50:05;;;;;;;;;;;;;;;25.09;23.30;99801.88;109375;1264;66932;-88
2024/02/07 23:52:31;;;;;;;6.30;5.00;;;;;;;25.05;23.13;99801.55;109372;1263;67477;-88
